createdAt,value
2023-02-28T00:01:33.920Z,24.47
2023-02-28T00:04:01.359Z,23.60
2023-02-28T00:06:29.426Z,23.77
2023-02-28T00:08:56.965Z,24.37
2023-02-28T00:11:24.461Z,22.90
2023-02-28T00:13:52.056Z,24.07
2023-02-28T00:16:23.424Z,22.07
2023-02-28T00:18:51.976Z,24.13
2023-02-28T00:21:20.992Z,38.83
2023-02-28T00:23:49.058Z,32.93
2023-02-28T00:26:16.594Z,29.60
2023-02-28T00:28:44.073Z,29.43
2023-02-28T00:31:11.617Z,27.60
2023-02-28T00:33:39.125Z,24.80
2023-02-28T00:36:10.696Z,27.20
2023-02-28T00:38:39.515Z,28.53
2023-02-28T00:41:08.443Z,29.83
2023-02-28T00:43:38.227Z,34.50
2023-02-28T00:46:06.319Z,41.10
2023-02-28T00:48:34.106Z,28.57
2023-02-28T00:51:02.113Z,34.17
2023-02-28T00:53:30.441Z,29.70
2023-02-28T00:55:58.009Z,30.33
2023-02-28T00:58:25.835Z,27.20
2023-02-28T01:00:54.947Z,30.53
2023-02-28T01:03:23.937Z,28.93
2023-02-28T01:05:54.178Z,26.50
2023-02-28T01:08:21.789Z,24.40
2023-02-28T01:10:49.593Z,31.40
2023-02-28T01:13:17.518Z,24.77
2023-02-28T01:15:55.684Z,29.07
2023-02-28T01:18:24.081Z,34.97
2023-02-28T01:20:53.467Z,26.93
2023-02-28T01:23:24.490Z,20.37
2023-02-28T01:25:53.125Z,34.70
2023-02-28T01:28:21.246Z,29.40
2023-02-28T01:30:52.807Z,28.40
2023-02-28T01:33:20.605Z,25.03
2023-02-28T01:35:48.086Z,24.20
2023-02-28T01:38:22.661Z,21.33
2023-02-28T01:40:51.102Z,22.40
2023-02-28T01:43:24.467Z,26.50
2023-02-28T01:45:54.897Z,41.40
2023-02-28T01:48:37.632Z,52.83
2023-02-28T01:51:12.951Z,35.97
2023-02-28T01:53:56.291Z,48.87
2023-02-28T01:56:29.528Z,40.33
2023-02-28T01:58:57.602Z,32.37
2023-02-28T02:01:28.091Z,43.73
2023-02-28T02:04:00.660Z,51.13
2023-02-28T02:06:44.054Z,52.97
2023-02-28T02:09:12.468Z,34.20
2023-02-28T02:11:44.022Z,27.47
2023-02-28T02:14:54.431Z,23.73
2023-02-28T02:17:36.093Z,21.73
2023-02-28T02:21:16.295Z,21.03
2023-02-28T02:24:12.741Z,9.13
2023-02-28T02:26:59.014Z,11.60
2023-02-28T02:30:01.498Z,11.17
2023-02-28T02:33:05.700Z,12.20
2023-02-28T02:36:01.133Z,13.80
2023-02-28T02:39:05.679Z,15.07
2023-02-28T02:41:45.083Z,18.90
2023-02-28T02:44:27.960Z,19.50
2023-02-28T02:47:13.293Z,17.23
2023-02-28T02:49:47.370Z,14.27
2023-02-28T02:52:20.139Z,11.27
2023-02-28T02:54:49.974Z,10.17
2023-02-28T02:57:26.969Z,13.03
2023-02-28T02:59:56.388Z,8.77
2023-02-28T03:02:26.348Z,10.23
2023-02-28T03:05:01.793Z,11.60
2023-02-28T03:07:29.861Z,11.37
2023-02-28T03:09:58.909Z,9.17
2023-02-28T03:12:42.352Z,10.67
2023-02-28T03:15:49.028Z,5.93
2023-02-28T03:19:04.342Z,6.77
2023-02-28T03:21:53.646Z,6.20
2023-02-28T03:24:47.544Z,6.97
2023-02-28T03:27:21.985Z,7.83
2023-02-28T03:30:08.053Z,8.03
2023-02-28T03:32:43.027Z,6.77
2023-02-28T03:35:23.780Z,9.10
2023-02-28T03:38:04.552Z,10.07
2023-02-28T03:40:34.896Z,8.73
2023-02-28T03:43:11.113Z,8.37
2023-02-28T03:45:40.900Z,7.70
2023-02-28T03:48:37.174Z,10.53
2023-02-28T03:51:08.370Z,11.10
2023-02-28T03:53:52.799Z,10.53
2023-02-28T03:56:34.648Z,9.93
2023-02-28T03:59:12.210Z,9.00
2023-02-28T04:01:44.168Z,10.83
2023-02-28T04:04:12.990Z,9.77
2023-02-28T04:06:41.489Z,11.73
2023-02-28T04:11:45.851Z,11.33
2023-02-28T04:14:13.648Z,13.90
2023-02-28T04:16:43.240Z,12.53
2023-02-28T04:19:13.247Z,12.20
2023-02-28T04:21:53.945Z,12.97
2023-02-28T04:24:29.152Z,13.87
2023-02-28T04:26:59.056Z,10.70
2023-02-28T04:29:33.377Z,20.70
2023-02-28T04:32:03.068Z,23.17
2023-02-28T04:34:33.933Z,21.27
2023-02-28T04:37:12.739Z,25.67
2023-02-28T04:39:41.519Z,20.90
2023-02-28T04:42:09.223Z,20.17
2023-02-28T04:44:36.718Z,16.23
2023-02-28T04:47:04.236Z,11.77
2023-02-28T04:49:32.164Z,10.33
2023-02-28T04:51:59.651Z,12.77
2023-02-28T04:54:27.210Z,17.07
2023-02-28T04:56:55.930Z,19.50
2023-02-28T04:59:23.374Z,29.53
2023-02-28T05:01:51.309Z,31.37
2023-02-28T05:04:19.007Z,24.17
2023-02-28T05:06:46.471Z,25.40
2023-02-28T05:09:13.901Z,25.73
2023-02-28T05:11:43.039Z,28.00
2023-02-28T05:14:15.490Z,25.77
2023-02-28T05:16:43.427Z,28.43
2023-02-28T05:19:11.057Z,29.70
2023-02-28T05:21:42.445Z,31.87
2023-02-28T05:24:13.530Z,34.53
2023-02-28T05:26:44.476Z,41.73
2023-02-28T05:29:11.991Z,64.77
2023-02-28T05:31:39.726Z,64.13
2023-02-28T05:34:07.821Z,86.27
2023-02-28T05:36:38.182Z,69.33
2023-02-28T05:39:08.687Z,80.27
2023-02-28T05:41:36.190Z,85.17
2023-02-28T05:44:03.652Z,74.57
2023-02-28T05:46:31.175Z,86.27
2023-02-28T05:49:01.348Z,102.53
2023-02-28T05:51:29.400Z,65.07
2023-02-28T05:54:01.750Z,75.97
2023-02-28T05:56:29.749Z,63.33
2023-02-28T05:58:57.306Z,60.83
2023-02-28T06:01:43.522Z,59.03
2023-02-28T06:04:22.272Z,53.07
2023-02-28T06:06:58.716Z,52.77
2023-02-28T06:09:26.299Z,52.70
2023-02-28T06:11:53.872Z,32.37
2023-02-28T06:14:22.284Z,31.43
2023-02-28T06:16:50.088Z,34.50
2023-02-28T06:19:18.265Z,31.73
2023-02-28T06:21:45.777Z,28.67
2023-02-28T06:24:13.324Z,27.03
2023-02-28T06:26:40.863Z,31.63
2023-02-28T06:29:08.694Z,29.73
2023-02-28T06:31:36.374Z,41.00
2023-02-28T06:34:03.896Z,37.43
2023-02-28T06:36:31.621Z,48.03
2023-02-28T06:38:59.186Z,45.53
2023-02-28T06:41:28.629Z,46.87
2023-02-28T06:43:56.845Z,42.17
2023-02-28T06:46:25.105Z,41.40
2023-02-28T06:48:52.651Z,38.77
2023-02-28T06:51:23.480Z,35.67
2023-02-28T06:53:51.815Z,33.53
2023-02-28T06:56:21.464Z,34.17
2023-02-28T06:58:51.479Z,34.90
2023-02-28T07:01:20.260Z,33.73
2023-02-28T07:03:48.161Z,33.10
2023-02-28T07:06:15.588Z,30.30
2023-02-28T07:08:43.077Z,31.63
2023-02-28T07:11:10.751Z,35.63
2023-02-28T07:13:38.598Z,42.37
2023-02-28T07:16:10.309Z,33.23
2023-02-28T07:18:38.681Z,33.23
2023-02-28T07:21:09.543Z,27.50
2023-02-28T07:23:39.151Z,23.97
2023-02-28T07:26:18.363Z,25.17
2023-02-28T07:28:48.820Z,24.63
2023-02-28T07:31:18.252Z,13.33
2023-02-28T07:33:45.879Z,10.50
2023-02-28T07:36:20.442Z,10.93
2023-02-28T07:38:51.336Z,10.93
2023-02-28T07:41:22.094Z,13.07
2023-02-28T07:43:49.639Z,16.53
2023-02-28T07:46:18.796Z,11.93
2023-02-28T07:48:46.736Z,14.23
2023-02-28T07:51:14.295Z,15.37
2023-02-28T07:53:41.818Z,16.57
2023-02-28T07:56:09.841Z,19.80
2023-02-28T07:58:37.501Z,15.87
2023-02-28T08:01:12.529Z,15.20
2023-02-28T08:03:41.262Z,16.27
2023-02-28T08:06:20.496Z,17.37
2023-02-28T08:08:48.380Z,14.77
2023-02-28T08:11:17.331Z,13.77
2023-02-28T08:13:45.697Z,14.63
2023-02-28T08:16:18.922Z,12.20
2023-02-28T08:18:46.494Z,12.63
2023-02-28T08:21:13.967Z,13.07
2023-02-28T08:23:41.497Z,15.00
2023-02-28T08:26:09.104Z,15.43
2023-02-28T08:28:36.565Z,12.73
2023-02-28T08:31:10.787Z,15.03
2023-02-28T08:33:40.247Z,13.00
2023-02-28T08:36:10.055Z,14.80
2023-02-28T08:38:38.528Z,13.70
2023-02-28T08:41:10.088Z,14.13
2023-02-28T08:43:38.395Z,12.20
2023-02-28T08:46:06.026Z,13.63
2023-02-28T08:48:35.898Z,11.53
2023-02-28T08:51:10.403Z,12.80
2023-02-28T08:53:39.201Z,12.80
2023-02-28T08:56:13.885Z,10.13
2023-02-28T08:58:42.127Z,10.90
2023-02-28T09:01:23.021Z,9.23
2023-02-28T09:03:53.333Z,9.23
2023-02-28T09:06:24.056Z,10.03
2023-02-28T09:08:52.173Z,8.80
2023-02-28T09:11:20.806Z,10.27
2023-02-28T09:13:48.570Z,9.50
2023-02-28T09:16:18.363Z,9.40
2023-02-28T09:18:46.046Z,7.77
2023-02-28T09:21:17.982Z,8.83
2023-02-28T09:23:47.875Z,8.17
2023-02-28T09:26:32.483Z,10.37
2023-02-28T09:29:06.414Z,8.97
2023-02-28T09:31:34.252Z,7.60
2023-02-28T09:34:02.441Z,7.70
2023-02-28T09:36:43.273Z,8.87
2023-02-28T09:39:13.212Z,9.30
2023-02-28T09:41:51.759Z,7.70
2023-02-28T09:44:26.257Z,8.30
2023-02-28T09:47:23.105Z,8.33
2023-02-28T09:49:51.557Z,7.83
2023-02-28T09:52:24.437Z,8.17
2023-02-28T09:54:51.952Z,9.83
2023-02-28T09:57:53.586Z,9.40
2023-02-28T10:00:36.103Z,10.40
2023-02-28T10:03:28.015Z,10.30
2023-02-28T10:06:04.031Z,12.63
2023-02-28T10:08:46.304Z,12.57
2023-02-28T10:11:18.261Z,13.33
2023-02-28T10:14:02.631Z,14.17
2023-02-28T10:16:57.833Z,13.10
2023-02-28T10:19:40.399Z,13.83
2023-02-28T10:22:23.195Z,12.20
2023-02-28T10:24:54.988Z,12.27
2023-02-28T10:27:31.452Z,12.70
2023-02-28T10:30:01.988Z,12.27
2023-02-28T10:32:34.410Z,12.83
2023-02-28T10:35:10.744Z,13.90
2023-02-28T10:37:43.557Z,14.10
2023-02-28T10:40:20.772Z,13.03
2023-02-28T10:43:20.926Z,10.97
2023-02-28T10:46:04.081Z,9.73
2023-02-28T10:48:33.762Z,13.70
2023-02-28T10:51:02.809Z,11.63
2023-02-28T10:53:57.574Z,10.17
2023-02-28T10:56:28.547Z,10.50
2023-02-28T10:59:09.471Z,9.10
2023-02-28T11:01:46.603Z,9.70
2023-02-28T11:04:30.605Z,10.73
2023-02-28T11:07:01.036Z,14.70
2023-02-28T11:09:39.941Z,18.43
2023-02-28T11:12:22.179Z,14.43
2023-02-28T11:15:05.602Z,10.47
2023-02-28T11:17:34.569Z,9.73
2023-02-28T11:20:08.616Z,9.47
2023-02-28T11:22:41.327Z,11.43
2023-02-28T11:25:24.701Z,8.27
2023-02-28T11:28:03.205Z,10.33
2023-02-28T11:30:41.660Z,8.80
2023-02-28T11:33:24.082Z,10.00
2023-02-28T11:35:53.980Z,8.40
2023-02-28T11:38:21.564Z,13.30
2023-02-28T11:41:52.554Z,8.87
2023-02-28T11:44:56.077Z,11.43
2023-02-28T11:48:05.383Z,8.67
2023-02-28T11:50:51.095Z,10.07
2023-02-28T11:53:44.809Z,8.77
2023-02-28T11:56:35.089Z,9.10
2023-02-28T11:59:34.720Z,9.07
2023-02-28T12:02:35.284Z,11.10
2023-02-28T12:05:36.540Z,9.73
2023-02-28T12:08:35.953Z,19.17
2023-02-28T12:11:40.036Z,10.93
2023-02-28T12:14:28.167Z,11.03
2023-02-28T12:17:20.855Z,8.57
2023-02-28T12:20:07.192Z,11.23
2023-02-28T12:22:49.638Z,10.13
2023-02-28T12:25:48.608Z,9.40
2023-02-28T12:28:25.490Z,9.53
2023-02-28T12:31:02.097Z,9.40
2023-02-28T12:33:43.913Z,9.60
2023-02-28T12:36:18.656Z,8.80
2023-02-28T12:38:57.184Z,8.57
2023-02-28T12:41:41.851Z,8.70
2023-02-28T12:44:30.484Z,9.20
2023-02-28T12:47:06.019Z,8.87
2023-02-28T12:49:42.656Z,9.40
2023-02-28T12:52:14.952Z,11.97
2023-02-28T12:54:56.313Z,8.77
2023-02-28T12:57:59.179Z,9.50
2023-02-28T13:00:35.952Z,9.97
2023-02-28T13:03:15.103Z,8.50
2023-02-28T13:06:24.473Z,9.53
2023-02-28T13:09:01.546Z,9.03
2023-02-28T13:11:43.270Z,10.47
2023-02-28T13:14:25.914Z,17.40
2023-02-28T13:17:10.090Z,11.47
2023-02-28T13:19:55.129Z,14.87
2023-02-28T13:22:45.945Z,11.83
2023-02-28T13:25:34.504Z,11.20
2023-02-28T13:28:07.152Z,9.57
2023-02-28T13:30:57.077Z,11.67
2023-02-28T13:33:45.449Z,11.97
2023-02-28T13:36:30.429Z,9.60
2023-02-28T13:39:05.221Z,18.90
2023-02-28T13:41:33.004Z,34.83
2023-02-28T13:44:25.160Z,10.70
2023-02-28T13:46:52.830Z,10.43
2023-02-28T13:49:30.277Z,8.40
2023-02-28T13:52:10.020Z,9.67
2023-02-28T13:54:57.143Z,8.37
2023-02-28T13:57:42.311Z,10.00
2023-02-28T14:00:41.299Z,8.20
2023-02-28T14:03:34.913Z,8.50
2023-02-28T14:06:38.413Z,7.70
2023-02-28T14:09:34.590Z,7.83
2023-02-28T14:13:01.484Z,7.20
2023-02-28T14:15:40.227Z,7.13
2023-02-28T14:18:21.535Z,14.80
2023-02-28T14:20:55.159Z,7.53
2023-02-28T14:24:02.041Z,37.70
2023-02-28T14:27:13.521Z,10.30
2023-02-28T14:30:36.327Z,8.87
2023-02-28T14:33:30.450Z,8.93
2023-02-28T14:36:50.591Z,9.77
2023-02-28T14:39:23.848Z,8.83
2023-02-28T14:41:51.855Z,10.70
2023-02-28T14:44:25.267Z,11.13
2023-02-28T14:47:05.525Z,8.13
2023-02-28T14:50:00.500Z,9.77
2023-02-28T14:52:30.949Z,9.53
2023-02-28T14:55:09.052Z,10.00
2023-02-28T14:57:42.755Z,6.80
2023-02-28T15:00:31.842Z,7.10
2023-02-28T15:03:02.328Z,7.10
2023-02-28T15:05:35.736Z,8.53
2023-02-28T15:08:15.023Z,12.93
2023-02-28T15:11:03.878Z,19.50
2023-02-28T15:13:51.861Z,10.63
2023-02-28T15:16:22.362Z,9.63
2023-02-28T15:19:06.144Z,14.47
2023-02-28T15:21:36.456Z,14.80
2023-02-28T15:24:27.883Z,12.17
2023-02-28T15:26:59.807Z,10.20
2023-02-28T15:29:30.652Z,12.10
2023-02-28T15:32:10.312Z,10.33
2023-02-28T15:34:44.885Z,12.17
2023-02-28T15:37:28.382Z,17.23
2023-02-28T15:39:59.734Z,17.33
2023-02-28T15:42:32.559Z,16.47
2023-02-28T15:45:01.015Z,13.93
2023-02-28T15:47:31.224Z,15.60
2023-02-28T15:50:10.262Z,13.97
2023-02-28T15:52:47.694Z,18.10
2023-02-28T15:55:31.839Z,18.17
2023-02-28T15:58:03.165Z,13.30
2023-02-28T16:00:33.999Z,17.27
2023-02-28T16:03:01.764Z,22.07
2023-02-28T16:05:33.159Z,19.70
2023-02-28T16:08:12.877Z,21.33
2023-02-28T16:10:40.532Z,19.73
2023-02-28T16:13:13.150Z,33.07
2023-02-28T16:15:44.532Z,23.80
2023-02-28T16:18:15.266Z,24.37
2023-02-28T16:20:42.783Z,25.30
2023-02-28T16:23:10.191Z,60.80
2023-02-28T16:25:44.225Z,88.80
2023-02-28T16:28:38.171Z,95.97
2023-02-28T16:31:08.984Z,26.63
2023-02-28T16:33:36.508Z,22.10
2023-02-28T16:36:04.392Z,32.07
2023-02-28T16:38:31.803Z,28.97
2023-02-28T16:41:01.501Z,22.00
2023-02-28T16:43:29.561Z,19.33
2023-02-28T16:46:01.657Z,19.23
2023-02-28T16:48:29.374Z,28.00
2023-02-28T16:50:56.821Z,18.10
2023-02-28T16:53:24.238Z,18.77
2023-02-28T16:55:52.122Z,27.07
2023-02-28T16:58:22.494Z,48.13
2023-02-28T17:00:50.275Z,61.07
2023-02-28T17:03:33.817Z,77.47
2023-02-28T17:06:02.376Z,69.47
2023-02-28T17:08:33.255Z,71.67
2023-02-28T17:11:02.775Z,108.00
2023-02-28T17:13:30.199Z,111.57
2023-02-28T17:15:57.783Z,91.40
2023-02-28T17:18:25.376Z,68.10
2023-02-28T17:20:52.802Z,58.13
2023-02-28T17:23:20.260Z,58.00
2023-02-28T17:25:57.617Z,38.63
2023-02-28T17:28:25.806Z,40.90
2023-02-28T17:30:53.319Z,56.13
2023-02-28T17:33:20.801Z,41.87
2023-02-28T17:35:48.360Z,35.03
2023-02-28T17:38:19.765Z,28.63
2023-02-28T17:40:47.221Z,24.87
2023-02-28T17:43:15.921Z,22.40
2023-02-28T17:45:43.457Z,20.70
2023-02-28T17:48:13.457Z,19.60
2023-02-28T17:50:40.922Z,21.57
2023-02-28T17:53:08.558Z,28.27
2023-02-28T17:55:36.716Z,21.90
2023-02-28T17:58:04.847Z,22.37
2023-02-28T18:00:35.251Z,18.73
2023-02-28T18:03:02.810Z,19.63
2023-02-28T18:05:31.203Z,22.83
2023-02-28T18:07:59.622Z,25.63
2023-02-28T18:10:28.491Z,24.13
2023-02-28T18:12:56.108Z,31.50
2023-02-28T18:15:23.919Z,29.17
2023-02-28T18:17:51.964Z,28.97
2023-02-28T18:20:19.845Z,29.17
2023-02-28T18:22:47.740Z,23.03
2023-02-28T18:25:17.222Z,23.97
2023-02-28T18:27:54.481Z,21.67
2023-02-28T18:30:23.036Z,23.93
2023-02-28T18:32:50.471Z,44.60
2023-02-28T18:35:34.843Z,29.57
2023-02-28T18:38:04.787Z,24.60
2023-02-28T18:40:32.546Z,26.97
2023-02-28T18:43:00.587Z,27.60
2023-02-28T18:45:28.692Z,28.43
2023-02-28T18:47:56.155Z,25.77
2023-02-28T18:50:23.936Z,26.70
2023-02-28T18:52:51.665Z,28.17
2023-02-28T18:55:19.339Z,26.17
2023-02-28T18:57:48.132Z,27.27
2023-02-28T19:00:22.832Z,24.43
2023-02-28T19:02:50.912Z,26.53
2023-02-28T19:05:19.697Z,24.60
2023-02-28T19:07:47.830Z,27.90
2023-02-28T19:10:16.357Z,28.97
2023-02-28T19:12:43.953Z,22.97
2023-02-28T19:15:12.371Z,28.73
2023-02-28T19:17:40.527Z,30.90
2023-02-28T19:20:09.917Z,33.90
2023-02-28T19:22:37.706Z,29.43
2023-02-28T19:25:07.387Z,33.20
2023-02-28T19:27:35.372Z,33.30
2023-02-28T19:30:04.451Z,31.17
2023-02-28T19:32:32.048Z,34.77
2023-02-28T19:34:59.593Z,38.13
2023-02-28T19:37:27.198Z,43.50
2023-02-28T19:39:57.075Z,42.03
2023-02-28T19:42:25.102Z,38.40
2023-02-28T19:44:52.571Z,35.80
2023-02-28T19:47:19.970Z,41.27
2023-02-28T19:49:47.644Z,38.10
2023-02-28T19:52:15.647Z,33.80
2023-02-28T19:54:43.315Z,29.30
2023-02-28T19:57:11.063Z,29.43
2023-02-28T19:59:39.996Z,24.87
2023-02-28T20:02:16.292Z,25.67
2023-02-28T20:04:47.228Z,27.10
2023-02-28T20:07:15.449Z,27.07
2023-02-28T20:09:42.944Z,28.30
2023-02-28T20:12:23.113Z,31.57
2023-02-28T20:14:51.529Z,37.07
2023-02-28T20:17:19.490Z,44.50
2023-02-28T20:19:46.986Z,44.53
2023-02-28T20:22:14.512Z,44.87
2023-02-28T20:24:41.944Z,48.93
2023-02-28T20:27:09.529Z,43.17
2023-02-28T20:29:37.119Z,57.47
2023-02-28T20:32:04.754Z,88.33
2023-02-28T20:34:32.206Z,89.90
2023-02-28T20:36:59.905Z,49.30
2023-02-28T20:39:27.477Z,31.97
2023-02-28T20:41:54.949Z,25.03
2023-02-28T20:44:22.372Z,27.00
2023-02-28T20:46:49.829Z,28.93
2023-02-28T20:49:17.412Z,26.60
2023-02-28T20:51:44.872Z,32.13
2023-02-28T20:54:12.490Z,34.07
2023-02-28T20:56:40.087Z,35.43
2023-02-28T20:59:07.763Z,34.30
2023-02-28T21:01:35.272Z,54.77
2023-02-28T21:04:09.127Z,79.47
2023-02-28T21:06:40.748Z,67.10
2023-02-28T21:09:10.146Z,53.80
2023-02-28T21:11:39.166Z,44.90
2023-02-28T21:14:11.614Z,51.60
2023-02-28T21:16:39.350Z,55.40
2023-02-28T21:19:07.215Z,65.43
2023-02-28T21:21:44.822Z,58.27
2023-02-28T21:24:17.009Z,44.77
2023-02-28T21:26:46.357Z,61.60
2023-02-28T21:29:15.064Z,61.77
2023-02-28T21:31:42.617Z,60.03
2023-02-28T21:34:12.869Z,64.87
2023-02-28T21:36:45.600Z,72.93
2023-02-28T21:39:22.030Z,91.83
2023-02-28T21:41:49.926Z,74.77
2023-02-28T21:44:21.511Z,116.60
2023-02-28T21:46:57.083Z,172.33
2023-02-28T21:49:24.660Z,154.83
2023-02-28T21:51:52.110Z,66.33
2023-02-28T21:54:19.527Z,69.23
2023-02-28T21:56:47.096Z,76.40
2023-02-28T21:59:14.601Z,64.63
2023-02-28T22:01:44.591Z,49.27
2023-02-28T22:04:24.610Z,47.43
2023-02-28T22:06:59.486Z,53.83
2023-02-28T22:09:27.538Z,46.67
2023-02-28T22:11:56.035Z,44.83
2023-02-28T22:14:24.108Z,44.70
2023-02-28T22:16:54.526Z,42.30
2023-02-28T22:19:23.820Z,44.63
2023-02-28T22:21:54.002Z,39.53
2023-02-28T22:24:24.635Z,38.53
2023-02-28T22:26:53.110Z,34.47
2023-02-28T22:29:21.231Z,33.70
2023-02-28T22:31:48.819Z,31.40
2023-02-28T22:34:16.572Z,32.73
2023-02-28T22:36:44.626Z,28.50
2023-02-28T22:39:12.843Z,26.67
2023-02-28T22:41:40.916Z,30.27
2023-02-28T22:44:08.596Z,28.53
2023-02-28T22:46:36.633Z,27.87
2023-02-28T22:49:05.845Z,29.63
2023-02-28T22:51:34.456Z,33.53
2023-02-28T22:54:02.291Z,32.03
2023-02-28T22:56:30.993Z,33.17
2023-02-28T22:59:00.980Z,29.67
2023-02-28T23:01:32.931Z,32.33
2023-02-28T23:04:00.876Z,33.73
2023-02-28T23:06:44.261Z,28.97
2023-02-28T23:09:21.810Z,26.90
2023-02-28T23:11:52.125Z,26.70
2023-02-28T23:14:21.338Z,31.67
2023-02-28T23:16:54.755Z,30.87
2023-02-28T23:19:31.674Z,26.43
2023-02-28T23:22:00.627Z,30.33
2023-02-28T23:24:31.656Z,28.50
2023-02-28T23:27:04.578Z,23.37
2023-02-28T23:29:33.079Z,25.93
2023-02-28T23:32:00.679Z,23.47
2023-02-28T23:34:32.222Z,27.90
2023-02-28T23:37:02.092Z,27.10
2023-02-28T23:39:31.400Z,32.70
2023-02-28T23:41:59.803Z,33.37
2023-02-28T23:44:27.262Z,33.47
2023-02-28T23:46:54.974Z,32.77
2023-02-28T23:49:23.593Z,30.33
2023-02-28T23:51:52.448Z,31.67
2023-02-28T23:54:20.037Z,36.20
2023-02-28T23:56:47.693Z,38.57
2023-02-28T23:59:15.188Z,33.07
